createdAt,value
2023-01-07T00:00:00.928Z,818.25
2023-01-07T00:01:00.919Z,818.24
2023-01-07T00:02:00.932Z,818.25
2023-01-07T00:03:00.990Z,818.26
2023-01-07T00:04:01.039Z,818.24
2023-01-07T00:05:01.010Z,818.22
2023-01-07T00:06:00.962Z,818.22
2023-01-07T00:07:00.976Z,818.23
2023-01-07T00:08:00.980Z,818.20
2023-01-07T00:09:00.992Z,818.20
2023-01-07T00:10:00.999Z,818.22
2023-01-07T00:11:01.004Z,818.20
2023-01-07T00:12:01.008Z,818.24
2023-01-07T00:13:01.013Z,818.20
2023-01-07T00:14:01.168Z,818.15
2023-01-07T00:15:01.027Z,818.19
2023-01-07T00:16:01.091Z,818.21
2023-01-07T00:17:01.045Z,818.17
2023-01-07T00:18:01.053Z,818.15
2023-01-07T00:19:01.066Z,818.14
2023-01-07T00:20:01.077Z,818.17
2023-01-07T00:21:01.086Z,818.15
2023-01-07T00:22:01.088Z,818.13
2023-01-07T00:23:01.096Z,818.18
2023-01-07T00:24:01.105Z,818.14
2023-01-07T00:25:01.115Z,818.08
2023-01-07T00:26:01.122Z,818.15
2023-01-07T00:27:01.120Z,818.11
2023-01-07T00:28:01.139Z,818.11
2023-01-07T00:29:01.220Z,818.08
2023-01-07T00:30:01.269Z,818.10
2023-01-07T00:31:01.228Z,818.10
2023-01-07T00:32:01.175Z,818.07
2023-01-07T00:33:01.177Z,818.07
2023-01-07T00:34:01.180Z,818.04
2023-01-07T00:35:01.182Z,818.04
2023-01-07T00:36:01.197Z,818.01
2023-01-07T00:37:01.196Z,818.00
2023-01-07T00:38:01.210Z,818.03
2023-01-07T00:39:01.213Z,817.97
2023-01-07T00:40:01.225Z,817.99
2023-01-07T00:41:01.235Z,817.98
2023-01-07T00:42:01.240Z,818.01
2023-01-07T00:43:01.276Z,817.99
2023-01-07T00:44:01.254Z,817.99
2023-01-07T00:45:01.315Z,817.99
2023-01-07T00:46:01.379Z,817.98
2023-01-07T00:47:01.278Z,817.94
2023-01-07T00:48:01.304Z,817.97
2023-01-07T00:49:01.288Z,817.95
2023-01-07T00:50:01.303Z,817.94
2023-01-07T00:51:01.307Z,817.91
2023-01-07T00:52:01.322Z,817.91
2023-01-07T00:53:01.324Z,817.90
2023-01-07T00:54:01.343Z,817.86
2023-01-07T00:55:01.336Z,817.85
2023-01-07T00:56:01.344Z,817.87
2023-01-07T00:57:01.348Z,817.87
2023-01-07T00:58:01.357Z,817.85
2023-01-07T00:59:01.372Z,817.85
2023-01-07T01:00:01.386Z,817.85
2023-01-07T01:01:01.517Z,817.85
2023-01-07T01:02:01.677Z,817.85
2023-01-07T01:03:01.403Z,817.84
2023-01-07T01:04:01.410Z,817.83
2023-01-07T01:05:01.415Z,817.81
2023-01-07T01:06:01.520Z,817.80
2023-01-07T01:07:01.423Z,817.83
2023-01-07T01:08:01.441Z,817.81
2023-01-07T01:09:01.437Z,817.81
2023-01-07T01:10:01.447Z,817.81
2023-01-07T01:11:01.452Z,817.83
2023-01-07T01:12:01.462Z,817.79
2023-01-07T01:13:01.481Z,817.81
2023-01-07T01:14:01.473Z,817.81
2023-01-07T01:15:01.481Z,817.80
2023-01-07T01:16:01.557Z,817.80
2023-01-07T01:17:01.497Z,817.81
2023-01-07T01:18:01.627Z,817.78
2023-01-07T01:19:01.517Z,817.77
2023-01-07T01:20:01.529Z,817.77
2023-01-07T01:21:01.529Z,817.75
2023-01-07T01:22:01.555Z,817.80
2023-01-07T01:23:01.554Z,817.80
2023-01-07T01:24:01.565Z,817.77
2023-01-07T01:25:01.557Z,817.77
2023-01-07T01:26:01.569Z,817.78
2023-01-07T01:27:01.572Z,817.76
2023-01-07T01:28:01.590Z,817.75
2023-01-07T01:29:01.599Z,817.77
2023-01-07T01:30:01.598Z,817.77
2023-01-07T01:31:01.721Z,817.75
2023-01-07T01:32:01.619Z,817.70
2023-01-07T01:33:01.616Z,817.70
2023-01-07T01:34:01.644Z,817.71
2023-01-07T01:35:01.634Z,817.73
2023-01-07T01:36:01.641Z,817.70
2023-01-07T01:37:01.646Z,817.67
2023-01-07T01:38:01.658Z,817.66
2023-01-07T01:39:01.681Z,817.66
2023-01-07T01:40:01.671Z,817.65
2023-01-07T01:41:01.685Z,817.65
2023-01-07T01:42:01.688Z,817.67
2023-01-07T01:43:01.691Z,817.68
2023-01-07T01:44:01.714Z,817.66
2023-01-07T01:45:01.705Z,817.68
2023-01-07T01:46:01.733Z,817.64
2023-01-07T01:47:01.804Z,817.66
2023-01-07T01:48:01.728Z,817.60
2023-01-07T01:49:01.735Z,817.64
2023-01-07T01:50:01.865Z,817.65
2023-01-07T01:51:01.762Z,817.61
2023-01-07T01:52:01.758Z,817.64
2023-01-07T01:53:01.779Z,817.62
2023-01-07T01:54:01.772Z,817.63
2023-01-07T01:55:01.775Z,817.62
2023-01-07T01:56:01.794Z,817.62
2023-01-07T01:57:01.790Z,817.61
2023-01-07T01:58:01.804Z,817.58
2023-01-07T01:59:01.808Z,817.57
2023-01-07T02:00:01.823Z,817.58
2023-01-07T02:01:02.005Z,817.57
2023-01-07T02:02:01.950Z,817.54
2023-01-07T02:03:01.833Z,817.55
2023-01-07T02:04:01.843Z,817.57
2023-01-07T02:05:01.850Z,817.53
2023-01-07T02:06:01.975Z,817.54
2023-01-07T02:07:01.874Z,817.55
2023-01-07T02:08:01.874Z,817.53
2023-01-07T02:09:01.880Z,817.55
2023-01-07T02:10:01.896Z,817.56
2023-01-07T02:11:01.892Z,817.53
2023-01-07T02:12:01.901Z,817.47
2023-01-07T02:13:01.919Z,817.50
2023-01-07T02:14:01.917Z,817.51
2023-01-07T02:15:01.929Z,817.48
2023-01-07T02:16:02.050Z,817.48
2023-01-07T02:17:01.946Z,817.45
2023-01-07T02:18:01.953Z,817.45
2023-01-07T02:19:01.950Z,817.47
2023-01-07T02:20:01.998Z,817.42
2023-01-07T02:21:01.974Z,817.43
2023-01-07T02:22:01.997Z,817.44
2023-01-07T02:23:02.001Z,817.45
2023-01-07T02:24:02.005Z,817.43
2023-01-07T02:25:01.996Z,817.42
2023-01-07T02:26:02.006Z,817.39
2023-01-07T02:27:02.014Z,817.41
2023-01-07T02:28:02.028Z,817.38
2023-01-07T02:29:02.028Z,817.36
2023-01-07T02:30:02.039Z,817.35
2023-01-07T02:31:02.043Z,817.35
2023-01-07T02:32:02.051Z,817.31
2023-01-07T02:33:02.056Z,817.26
2023-01-07T02:34:02.065Z,817.28
2023-01-07T02:35:02.075Z,817.28
2023-01-07T02:36:02.077Z,817.27
2023-01-07T02:37:02.088Z,817.27
2023-01-07T02:38:02.214Z,817.24
2023-01-07T02:39:02.101Z,817.25
2023-01-07T02:40:02.118Z,817.24
2023-01-07T02:41:02.138Z,817.23
2023-01-07T02:42:02.218Z,817.23
2023-01-07T02:43:02.147Z,817.20
2023-01-07T02:44:02.143Z,817.24
2023-01-07T02:45:02.147Z,817.20
2023-01-07T02:46:02.236Z,817.22
2023-01-07T02:47:02.167Z,817.23
2023-01-07T02:48:02.165Z,817.21
2023-01-07T02:49:02.196Z,817.25
2023-01-07T02:50:02.202Z,817.21
2023-01-07T02:51:02.208Z,817.20
2023-01-07T02:52:02.200Z,817.16
2023-01-07T02:53:02.212Z,817.14
2023-01-07T02:54:02.322Z,817.12
2023-01-07T02:55:02.221Z,817.12
2023-01-07T02:56:02.225Z,817.10
2023-01-07T02:57:02.232Z,817.10
2023-01-07T02:58:02.236Z,817.07
2023-01-07T02:59:02.248Z,817.04
2023-01-07T03:00:02.260Z,817.03
2023-01-07T03:01:02.348Z,817.02
2023-01-07T03:02:02.365Z,817.02
2023-01-07T03:03:02.286Z,816.98
2023-01-07T03:04:02.347Z,816.98
2023-01-07T03:05:02.298Z,816.97
2023-01-07T03:06:02.294Z,816.96
2023-01-07T03:07:02.320Z,816.89
2023-01-07T03:08:02.334Z,816.97
2023-01-07T03:09:02.348Z,816.94
2023-01-07T03:10:02.445Z,816.94
2023-01-07T03:11:02.338Z,816.95
2023-01-07T03:12:02.338Z,816.87
2023-01-07T03:13:02.351Z,816.92
2023-01-07T03:14:02.355Z,816.91
2023-01-07T03:15:02.390Z,816.88
2023-01-07T03:16:02.378Z,816.89
2023-01-07T03:17:02.391Z,816.87
2023-01-07T03:18:02.385Z,816.84
2023-01-07T03:19:02.392Z,816.83
2023-01-07T03:20:02.396Z,816.82
2023-01-07T03:21:02.407Z,816.80
2023-01-07T03:22:02.412Z,816.76
2023-01-07T03:23:02.421Z,816.77
2023-01-07T03:24:02.423Z,816.78
2023-01-07T03:25:02.433Z,816.78
2023-01-07T03:26:02.556Z,816.79
2023-01-07T03:27:02.451Z,816.81
2023-01-07T03:28:02.458Z,816.76
2023-01-07T03:29:02.464Z,816.78
2023-01-07T03:30:02.466Z,816.75
2023-01-07T03:31:02.481Z,816.75
2023-01-07T03:32:02.610Z,816.76
2023-01-07T03:33:02.499Z,816.77
2023-01-07T03:34:02.501Z,816.74
2023-01-07T03:35:02.510Z,816.75
2023-01-07T03:36:02.510Z,816.75
2023-01-07T03:37:02.520Z,816.73
2023-01-07T03:38:02.535Z,816.71
2023-01-07T03:39:02.538Z,816.69
2023-01-07T03:40:02.561Z,816.71
2023-01-07T03:41:02.549Z,816.66
2023-01-07T03:42:02.667Z,816.66
2023-01-07T03:43:02.565Z,816.64
2023-01-07T03:44:02.671Z,816.65
2023-01-07T03:45:02.602Z,816.62
2023-01-07T03:46:02.683Z,816.61
2023-01-07T03:47:02.590Z,816.60
2023-01-07T03:48:02.597Z,816.60
2023-01-07T03:49:02.615Z,816.58
2023-01-07T03:50:02.616Z,816.59
2023-01-07T03:51:02.622Z,816.54
2023-01-07T03:52:02.625Z,816.54
2023-01-07T03:53:02.658Z,816.54
2023-01-07T03:54:02.649Z,816.51
2023-01-07T03:55:02.754Z,816.49
2023-01-07T03:56:02.653Z,816.51
2023-01-07T03:57:02.690Z,816.47
2023-01-07T03:58:02.784Z,816.48
2023-01-07T03:59:02.678Z,816.48
2023-01-07T04:00:02.693Z,816.45
2023-01-07T04:01:02.838Z,816.45
2023-01-07T04:02:02.880Z,816.44
2023-01-07T04:03:02.713Z,816.42
2023-01-07T04:04:03.540Z,816.44
2023-01-07T04:05:02.726Z,816.43
2023-01-07T04:06:02.728Z,816.41
2023-01-07T04:07:02.739Z,816.42
2023-01-07T04:08:02.746Z,816.41
2023-01-07T04:09:02.755Z,816.38
2023-01-07T04:10:02.768Z,816.37
2023-01-07T04:11:02.785Z,816.37
2023-01-07T04:12:02.786Z,816.35
2023-01-07T04:13:02.777Z,816.31
2023-01-07T04:14:02.900Z,816.30
2023-01-07T04:15:02.800Z,816.28
2023-01-07T04:16:02.800Z,816.31
2023-01-07T04:17:02.806Z,816.31
2023-01-07T04:18:02.816Z,816.28
2023-01-07T04:19:02.824Z,816.31
2023-01-07T04:20:02.821Z,816.31
2023-01-07T04:21:02.835Z,816.28
2023-01-07T04:22:02.845Z,816.31
2023-01-07T04:23:02.855Z,816.31
2023-01-07T04:24:02.856Z,816.30
2023-01-07T04:25:02.863Z,816.29
2023-01-07T04:26:02.867Z,816.27
2023-01-07T04:27:02.890Z,816.24
2023-01-07T04:28:02.895Z,816.28
2023-01-07T04:29:02.895Z,816.25
2023-01-07T04:30:03.011Z,816.28
2023-01-07T04:31:02.927Z,816.27
2023-01-07T04:32:02.911Z,816.27
2023-01-07T04:33:02.930Z,816.26
2023-01-07T04:34:02.923Z,816.23
2023-01-07T04:35:02.934Z,816.19
2023-01-07T04:36:02.939Z,816.21
2023-01-07T04:37:02.948Z,816.23
2023-01-07T04:38:02.955Z,816.23
2023-01-07T04:39:02.965Z,816.24
2023-01-07T04:40:02.996Z,816.21
2023-01-07T04:41:02.979Z,816.21
2023-01-07T04:42:02.982Z,816.19
2023-01-07T04:43:02.993Z,816.20
2023-01-07T04:44:02.997Z,816.16
2023-01-07T04:45:03.022Z,816.13
2023-01-07T04:46:03.339Z,816.12
2023-01-07T04:47:03.017Z,816.17
2023-01-07T04:48:03.034Z,816.17
2023-01-07T04:49:03.032Z,816.15
2023-01-07T04:50:03.036Z,816.18
2023-01-07T04:51:03.043Z,816.19
2023-01-07T04:52:03.066Z,816.17
2023-01-07T04:53:03.071Z,816.20
2023-01-07T04:54:03.063Z,816.20
2023-01-07T04:55:03.073Z,816.15
2023-01-07T04:56:03.086Z,816.19
2023-01-07T04:57:03.096Z,816.17
2023-01-07T04:58:03.092Z,816.16
2023-01-07T04:59:03.100Z,816.13
2023-01-07T05:00:03.108Z,816.17
2023-01-07T05:01:03.341Z,816.13
2023-01-07T05:02:03.390Z,816.18
2023-01-07T05:03:03.135Z,816.15
2023-01-07T05:04:03.219Z,816.14
2023-01-07T05:05:03.148Z,816.16
2023-01-07T05:06:03.148Z,816.16
2023-01-07T05:07:03.159Z,816.19
2023-01-07T05:08:03.162Z,816.19
2023-01-07T05:09:03.174Z,816.19
2023-01-07T05:10:03.177Z,816.17
2023-01-07T05:11:03.195Z,816.18
2023-01-07T05:12:03.198Z,816.20
2023-01-07T05:13:05.075Z,816.19
2023-01-07T05:14:03.202Z,816.18
2023-01-07T05:15:03.241Z,816.18
2023-01-07T05:16:03.221Z,816.19
2023-01-07T05:17:03.269Z,816.16
2023-01-07T05:18:03.379Z,816.15
2023-01-07T05:19:03.251Z,816.15
2023-01-07T05:20:03.255Z,816.15
2023-01-07T05:21:03.267Z,816.18
2023-01-07T05:22:03.302Z,816.16
2023-01-07T05:23:03.279Z,816.16
2023-01-07T05:24:03.283Z,816.13
2023-01-07T05:25:03.300Z,816.16
2023-01-07T05:26:03.299Z,816.13
2023-01-07T05:27:03.317Z,816.12
2023-01-07T05:28:03.322Z,816.13
2023-01-07T05:29:03.327Z,816.08
2023-01-07T05:30:03.317Z,816.14
2023-01-07T05:31:03.433Z,816.10
2023-01-07T05:32:03.332Z,816.09
2023-01-07T05:33:03.352Z,816.09
2023-01-07T05:34:03.481Z,816.09
2023-01-07T05:35:03.384Z,816.05
2023-01-07T05:36:03.372Z,816.08
2023-01-07T05:37:03.378Z,816.05
2023-01-07T05:38:03.391Z,816.09
2023-01-07T05:39:03.386Z,816.04
2023-01-07T05:40:03.390Z,816.04
2023-01-07T05:41:03.435Z,816.03
2023-01-07T05:42:03.405Z,816.06
2023-01-07T05:43:03.423Z,816.02
2023-01-07T05:44:03.431Z,816.06
2023-01-07T05:45:03.463Z,816.07
2023-01-07T05:46:03.500Z,816.07
2023-01-07T05:47:03.444Z,816.08
2023-01-07T05:48:03.445Z,816.08
2023-01-07T05:49:03.457Z,816.03
2023-01-07T05:50:03.573Z,816.07
2023-01-07T05:51:03.479Z,816.06
2023-01-07T05:52:03.510Z,816.08
2023-01-07T05:53:03.488Z,816.02
2023-01-07T05:54:03.489Z,816.05
2023-01-07T05:55:03.505Z,816.05
2023-01-07T05:56:03.520Z,816.06
2023-01-07T05:57:03.514Z,816.05
2023-01-07T05:58:03.537Z,816.09
2023-01-07T05:59:03.535Z,816.04
2023-01-07T06:00:03.532Z,816.05
2023-01-07T06:01:03.578Z,816.07
2023-01-07T06:02:03.577Z,816.03
2023-01-07T06:03:03.556Z,816.04
2023-01-07T06:04:03.559Z,815.99
2023-01-07T06:05:03.698Z,815.98
2023-01-07T06:06:03.687Z,815.99
2023-01-07T06:07:03.586Z,816.04
2023-01-07T06:08:03.591Z,816.03
2023-01-07T06:09:03.598Z,816.02
2023-01-07T06:10:03.606Z,816.03
2023-01-07T06:11:03.608Z,816.04
2023-01-07T06:12:03.628Z,816.03
2023-01-07T06:13:03.632Z,816.02
2023-01-07T06:14:03.661Z,816.03
2023-01-07T06:15:03.689Z,815.99
2023-01-07T06:16:03.684Z,815.98
2023-01-07T06:17:03.652Z,815.96
2023-01-07T06:18:03.656Z,815.99
2023-01-07T06:19:03.682Z,815.99
2023-01-07T06:20:03.669Z,815.95
2023-01-07T06:21:03.705Z,815.99
2023-01-07T06:22:03.795Z,815.99
2023-01-07T06:23:03.693Z,815.97
2023-01-07T06:24:03.722Z,816.00
2023-01-07T06:25:03.705Z,816.01
2023-01-07T06:26:03.729Z,815.99
2023-01-07T06:27:03.720Z,816.00
2023-01-07T06:28:03.723Z,816.02
2023-01-07T06:29:03.751Z,815.98
2023-01-07T06:30:03.747Z,815.94
2023-01-07T06:31:03.813Z,815.97
2023-01-07T06:32:03.756Z,816.00
2023-01-07T06:33:03.765Z,816.00
2023-01-07T06:34:03.767Z,815.97
2023-01-07T06:35:03.780Z,816.02
2023-01-07T06:36:03.776Z,816.01
2023-01-07T06:37:03.788Z,816.02
2023-01-07T06:38:03.972Z,815.97
2023-01-07T06:39:03.807Z,815.98
2023-01-07T06:40:03.820Z,815.99
2023-01-07T06:41:03.820Z,816.03
2023-01-07T06:42:03.825Z,815.98
2023-01-07T06:43:03.844Z,816.03
2023-01-07T06:44:03.836Z,816.01
2023-01-07T06:45:03.840Z,816.03
2023-01-07T06:46:03.943Z,816.02
2023-01-07T06:47:03.878Z,816.01
2023-01-07T06:48:03.877Z,815.99
2023-01-07T06:49:03.877Z,816.04
2023-01-07T06:50:03.884Z,816.03
2023-01-07T06:51:03.890Z,816.00
2023-01-07T06:52:03.890Z,816.01
2023-01-07T06:53:03.898Z,816.02
2023-01-07T06:54:04.113Z,816.01
2023-01-07T06:55:03.914Z,815.97
2023-01-07T06:56:03.917Z,815.99
2023-01-07T06:57:03.921Z,815.94
2023-01-07T06:58:03.928Z,815.92
2023-01-07T06:59:03.937Z,815.99
2023-01-07T07:00:03.951Z,815.98
2023-01-07T07:01:04.052Z,815.95
2023-01-07T07:02:04.042Z,815.91
2023-01-07T07:03:04.045Z,815.91
2023-01-07T07:04:03.968Z,815.93
2023-01-07T07:05:04.000Z,815.93
2023-01-07T07:06:03.989Z,815.93
2023-01-07T07:07:03.996Z,815.94
2023-01-07T07:08:04.015Z,815.91
2023-01-07T07:09:04.003Z,815.92
2023-01-07T07:10:04.129Z,815.93
2023-01-07T07:11:04.013Z,815.94
2023-01-07T07:12:04.027Z,815.94
2023-01-07T07:13:04.052Z,815.88
2023-01-07T07:14:04.041Z,815.94
2023-01-07T07:15:04.088Z,815.93
2023-01-07T07:16:04.111Z,815.94
2023-01-07T07:17:04.052Z,815.93
2023-01-07T07:18:04.068Z,815.92
2023-01-07T07:19:04.066Z,815.93
2023-01-07T07:20:04.077Z,815.94
2023-01-07T07:21:04.085Z,815.93
2023-01-07T07:22:04.869Z,815.95
2023-01-07T07:23:04.092Z,815.93
2023-01-07T07:24:04.106Z,815.91
2023-01-07T07:26:04.229Z,815.90
2023-01-07T07:27:04.124Z,815.92
2023-01-07T07:28:04.132Z,815.95
2023-01-07T07:29:04.145Z,815.93
2023-01-07T07:30:04.147Z,815.95
2023-01-07T07:31:04.221Z,815.94
2023-01-07T07:32:04.167Z,815.93
2023-01-07T07:33:04.163Z,815.92
2023-01-07T07:34:04.185Z,815.93
2023-01-07T07:35:04.182Z,815.94
2023-01-07T07:36:04.185Z,815.93
2023-01-07T07:37:04.200Z,815.93
2023-01-07T07:38:04.194Z,815.92
2023-01-07T07:39:04.208Z,815.93
2023-01-07T07:40:04.246Z,815.93
2023-01-07T07:41:04.225Z,815.91
2023-01-07T07:42:04.342Z,815.94
2023-01-07T07:43:10.725Z,815.93
2023-01-07T07:44:04.252Z,815.90
2023-01-07T07:45:04.252Z,815.90
2023-01-07T07:46:04.393Z,815.89
2023-01-07T07:47:04.263Z,815.90
2023-01-07T07:48:04.262Z,815.88
2023-01-07T07:49:04.273Z,815.88
2023-01-07T07:50:04.280Z,815.87
2023-01-07T07:51:04.292Z,815.88
2023-01-07T07:52:04.291Z,815.87
2023-01-07T07:53:04.300Z,815.87
2023-01-07T07:54:04.306Z,815.86
2023-01-07T07:55:20.082Z,815.84
2023-01-07T07:56:04.321Z,815.85
2023-01-07T07:57:04.328Z,815.85
2023-01-07T07:58:04.451Z,815.88
2023-01-07T07:59:04.346Z,815.87
2023-01-07T08:00:04.355Z,815.89
2023-01-07T08:01:04.411Z,815.91
2023-01-07T08:02:04.411Z,815.90
2023-01-07T08:03:04.506Z,815.92
2023-01-07T08:04:04.369Z,815.91
2023-01-07T08:05:04.384Z,815.92
2023-01-07T08:06:04.396Z,815.91
2023-01-07T08:07:04.395Z,815.91
2023-01-07T08:08:04.416Z,815.92
2023-01-07T08:09:04.410Z,815.93
2023-01-07T08:10:04.418Z,815.90
2023-01-07T08:11:04.422Z,815.90
2023-01-07T08:12:04.435Z,815.90
2023-01-07T08:13:04.441Z,815.86
2023-01-07T08:14:04.549Z,815.85
2023-01-07T08:15:04.458Z,815.90
2023-01-07T08:16:04.516Z,815.89
2023-01-07T08:17:04.478Z,815.89
2023-01-07T08:18:04.469Z,815.89
2023-01-07T08:19:04.485Z,815.90
2023-01-07T08:20:04.500Z,815.86
2023-01-07T08:21:04.488Z,815.88
2023-01-07T08:22:04.493Z,815.90
2023-01-07T08:23:04.507Z,815.86
2023-01-07T08:24:04.506Z,815.83
2023-01-07T08:25:04.517Z,815.85
2023-01-07T08:26:04.539Z,815.84
2023-01-07T08:27:04.530Z,815.85
2023-01-07T08:28:04.533Z,815.85
2023-01-07T08:29:04.544Z,815.85
2023-01-07T08:30:04.679Z,815.89
2023-01-07T08:31:04.634Z,815.87
2023-01-07T08:32:04.569Z,815.88
2023-01-07T08:33:04.590Z,815.91
2023-01-07T08:34:04.582Z,815.90
2023-01-07T08:35:04.595Z,815.89
2023-01-07T08:36:09.239Z,815.90
2023-01-07T08:37:04.603Z,815.87
2023-01-07T08:38:04.603Z,815.85
2023-01-07T08:39:04.615Z,815.87
2023-01-07T08:40:05.905Z,815.85
2023-01-07T08:41:04.663Z,815.85
2023-01-07T08:42:04.630Z,815.86
2023-01-07T08:43:04.641Z,815.88
2023-01-07T08:44:04.642Z,815.90
2023-01-07T08:45:04.656Z,815.86
2023-01-07T08:46:04.770Z,815.88
2023-01-07T08:47:04.667Z,815.89
2023-01-07T08:48:04.673Z,815.94
2023-01-07T08:49:04.687Z,815.88
2023-01-07T08:50:04.687Z,815.91
2023-01-07T08:51:04.708Z,815.92
2023-01-07T08:52:04.709Z,815.86
2023-01-07T08:53:04.718Z,815.89
2023-01-07T08:54:04.717Z,815.88
2023-01-07T08:55:04.829Z,815.90
2023-01-07T08:56:04.765Z,815.88
2023-01-07T08:57:04.745Z,815.90
2023-01-07T08:58:04.744Z,815.88
2023-01-07T08:59:04.763Z,815.88
2023-01-07T09:00:04.825Z,815.83
2023-01-07T09:01:04.882Z,815.85
2023-01-07T09:02:05.068Z,815.87
2023-01-07T09:03:04.792Z,815.87
2023-01-07T09:04:04.798Z,815.83
2023-01-07T09:05:04.807Z,815.83
2023-01-07T09:06:04.814Z,815.90
2023-01-07T09:07:04.825Z,815.88
2023-01-07T09:08:04.830Z,815.83
2023-01-07T09:09:04.846Z,815.81
2023-01-07T09:10:04.853Z,815.86
2023-01-07T09:11:04.854Z,815.84
2023-01-07T09:12:04.871Z,815.85
2023-01-07T09:13:04.886Z,815.83
2023-01-07T09:14:04.877Z,815.82
2023-01-07T09:15:04.891Z,815.87
2023-01-07T09:16:04.965Z,815.86
2023-01-07T09:17:04.962Z,815.91
2023-01-07T09:18:05.020Z,815.89
2023-01-07T09:19:04.927Z,815.91
2023-01-07T09:20:04.929Z,815.89
2023-01-07T09:21:04.947Z,815.93
2023-01-07T09:22:04.955Z,815.93
2023-01-07T09:23:04.958Z,815.95
2023-01-07T09:24:04.963Z,815.94
2023-01-07T09:25:04.974Z,815.94
2023-01-07T09:26:04.978Z,815.97
2023-01-07T09:27:04.991Z,815.99
2023-01-07T09:28:05.015Z,815.96
2023-01-07T09:29:05.018Z,815.98
2023-01-07T09:30:05.014Z,816.01
2023-01-07T09:31:05.035Z,815.93
2023-01-07T09:32:05.031Z,815.95
2023-01-07T09:33:05.051Z,815.96
2023-01-07T09:34:05.158Z,815.97
2023-01-07T09:35:05.069Z,816.00
2023-01-07T09:36:05.069Z,816.00
2023-01-07T09:37:05.080Z,815.97
2023-01-07T09:38:05.092Z,815.98
2023-01-07T09:39:05.096Z,816.00
2023-01-07T09:40:05.112Z,815.97
2023-01-07T09:41:05.116Z,815.95
2023-01-07T09:42:05.134Z,815.98
2023-01-07T09:43:05.139Z,815.95
2023-01-07T09:44:05.135Z,815.97
2023-01-07T09:45:05.153Z,816.00
2023-01-07T09:46:05.218Z,815.98
2023-01-07T09:47:05.164Z,815.99
2023-01-07T09:48:05.177Z,816.01
2023-01-07T09:49:05.190Z,816.02
2023-01-07T09:50:05.310Z,816.07
2023-01-07T09:51:05.210Z,816.04
2023-01-07T09:52:05.208Z,816.08
2023-01-07T09:53:05.226Z,816.06
2023-01-07T09:54:05.222Z,816.08
2023-01-07T09:55:05.240Z,816.09
2023-01-07T09:56:11.614Z,816.10
2023-01-07T09:57:05.267Z,816.08
2023-01-07T09:58:05.262Z,816.07
2023-01-07T09:59:05.273Z,816.05
2023-01-07T10:00:05.284Z,816.03
2023-01-07T10:01:05.342Z,816.05
2023-01-07T10:02:05.325Z,816.07
2023-01-07T10:03:05.317Z,816.03
2023-01-07T10:04:05.468Z,816.02
2023-01-07T10:05:05.353Z,816.03
2023-01-07T10:06:05.561Z,815.98
2023-01-07T10:07:05.355Z,816.03
2023-01-07T10:08:31.119Z,816.00
2023-01-07T10:09:05.372Z,816.05
2023-01-07T10:10:05.469Z,816.03
2023-01-07T10:11:05.387Z,816.04
2023-01-07T10:12:05.400Z,816.02
2023-01-07T10:13:05.410Z,816.03
2023-01-07T10:14:05.416Z,816.04
2023-01-07T10:15:05.430Z,816.00
2023-01-07T10:16:05.549Z,816.01
2023-01-07T10:17:05.462Z,816.06
2023-01-07T10:18:05.459Z,816.03
2023-01-07T10:19:05.480Z,816.05
2023-01-07T10:20:05.494Z,816.00
2023-01-07T10:21:05.494Z,816.00
2023-01-07T10:22:05.614Z,816.00
2023-01-07T10:23:05.511Z,815.99
2023-01-07T10:24:05.528Z,815.97
2023-01-07T10:25:05.535Z,816.01
2023-01-07T10:26:05.540Z,816.01
2023-01-07T10:27:05.554Z,815.98
2023-01-07T10:28:05.565Z,816.02
2023-01-07T10:29:05.578Z,816.00
2023-01-07T10:30:05.581Z,815.99
2023-01-07T10:31:05.603Z,815.98
2023-01-07T10:32:05.606Z,815.94
2023-01-07T10:33:05.621Z,815.99
2023-01-07T10:34:05.632Z,815.96
2023-01-07T10:35:05.661Z,816.00
2023-01-07T10:36:05.650Z,815.96
2023-01-07T10:37:05.660Z,815.94
2023-01-07T10:38:05.789Z,815.97
2023-01-07T10:39:05.687Z,815.94
2023-01-07T10:40:05.696Z,815.88
2023-01-07T10:41:05.709Z,815.93
2023-01-07T10:42:05.718Z,815.92
2023-01-07T10:43:05.740Z,815.97
2023-01-07T10:44:05.745Z,815.94
2023-01-07T10:45:05.752Z,815.89
2023-01-07T10:46:05.879Z,815.90
2023-01-07T10:47:05.774Z,815.91
2023-01-07T10:48:05.784Z,815.89
2023-01-07T10:49:05.799Z,815.88
2023-01-07T10:50:05.822Z,815.89
2023-01-07T10:51:05.819Z,815.88
2023-01-07T10:52:05.831Z,815.87
2023-01-07T10:53:05.850Z,815.83
2023-01-07T10:54:05.971Z,815.83
2023-01-07T10:55:05.880Z,815.81
2023-01-07T10:56:05.909Z,815.79
2023-01-07T10:57:05.893Z,815.82
2023-01-07T10:58:06.002Z,815.83
2023-01-07T10:59:05.910Z,815.79
2023-01-07T11:00:05.920Z,815.77
2023-01-07T11:01:06.130Z,815.74
2023-01-07T11:02:06.184Z,815.77
2023-01-07T11:03:06.026Z,815.71
2023-01-07T11:04:05.981Z,815.72
2023-01-07T11:05:05.991Z,815.76
2023-01-07T11:06:05.991Z,815.71
2023-01-07T11:07:06.023Z,815.69
2023-01-07T11:08:06.017Z,815.73
2023-01-07T11:09:06.031Z,815.72
2023-01-07T11:10:06.075Z,815.71
2023-01-07T11:11:06.057Z,815.70
2023-01-07T11:12:06.068Z,815.68
2023-01-07T11:13:06.078Z,815.71
2023-01-07T11:14:06.096Z,815.66
2023-01-07T11:15:06.110Z,815.64
2023-01-07T11:16:06.112Z,815.63
2023-01-07T11:17:06.123Z,815.65
2023-01-07T11:18:06.146Z,815.64
2023-01-07T11:19:06.161Z,815.63
2023-01-07T11:20:06.197Z,815.64
2023-01-07T11:21:06.177Z,815.64
2023-01-07T11:22:06.189Z,815.62
2023-01-07T11:23:06.195Z,815.59
2023-01-07T11:24:06.214Z,815.59
2023-01-07T11:25:06.220Z,815.62
2023-01-07T11:26:06.349Z,815.59
2023-01-07T11:27:06.249Z,815.59
2023-01-07T11:28:06.262Z,815.57
2023-01-07T11:29:06.328Z,815.59
2023-01-07T11:30:06.299Z,815.57
2023-01-07T11:31:06.292Z,815.55
2023-01-07T11:32:06.449Z,815.51
2023-01-07T11:33:06.315Z,815.51
2023-01-07T11:34:06.333Z,815.49
2023-01-07T11:35:06.367Z,815.47
2023-01-07T11:36:06.367Z,815.47
2023-01-07T11:37:06.381Z,815.44
2023-01-07T11:38:06.387Z,815.45
2023-01-07T11:39:06.392Z,815.47
2023-01-07T11:40:06.412Z,815.44
2023-01-07T11:41:06.442Z,815.42
2023-01-07T11:42:06.568Z,815.42
2023-01-07T11:43:06.441Z,815.38
2023-01-07T11:44:06.459Z,815.40
2023-01-07T11:45:06.466Z,815.42
2023-01-07T11:46:19.106Z,815.37
2023-01-07T11:47:06.491Z,815.37
2023-01-07T11:48:06.537Z,815.36
2023-01-07T11:49:06.520Z,815.35
2023-01-07T11:50:06.529Z,815.31
2023-01-07T11:51:06.545Z,815.34
2023-01-07T11:52:06.556Z,815.33
2023-01-07T11:53:06.566Z,815.30
2023-01-07T11:54:06.586Z,815.30
2023-01-07T11:55:06.595Z,815.27
2023-01-07T11:56:06.615Z,815.24
2023-01-07T11:57:06.618Z,815.29
2023-01-07T11:58:28.667Z,815.22
2023-01-07T11:59:06.644Z,815.18
2023-01-07T12:00:06.691Z,815.20
2023-01-07T12:01:06.837Z,815.22
2023-01-07T12:02:06.768Z,815.21
2023-01-07T12:03:06.744Z,815.20
2023-01-07T12:04:06.716Z,815.12
2023-01-07T12:05:06.728Z,815.10
2023-01-07T12:06:06.748Z,815.12
2023-01-07T12:07:06.754Z,815.10
2023-01-07T12:08:06.761Z,815.10
2023-01-07T12:09:06.775Z,815.09
2023-01-07T12:10:06.791Z,815.08
2023-01-07T12:11:06.801Z,815.07
2023-01-07T12:12:06.832Z,815.04
2023-01-07T12:13:06.827Z,815.04
2023-01-07T12:14:06.961Z,815.06
2023-01-07T12:15:06.863Z,815.03
2023-01-07T12:16:06.960Z,814.99
2023-01-07T12:17:06.888Z,814.99
2023-01-07T12:18:06.994Z,814.97
2023-01-07T12:19:06.905Z,814.97
2023-01-07T12:20:06.962Z,814.98
2023-01-07T12:21:06.938Z,814.95
2023-01-07T12:22:06.960Z,815.00
2023-01-07T12:23:07.011Z,814.98
2023-01-07T12:24:07.014Z,814.96
2023-01-07T12:25:06.987Z,814.95
2023-01-07T12:26:07.001Z,814.94
2023-01-07T12:27:07.012Z,814.91
2023-01-07T12:28:07.032Z,814.89
2023-01-07T12:29:07.060Z,814.87